sensor_id;sensor_type;location;lat;lon;timestamp;P1;durP1;ratioP1;P2;durP2;ratioP2
43680;SDS011;29281;50.356;30.894;2022-12-05T09:13:51;9.92;;;5.83;;
43680;SDS011;29281;50.356;30.894;2022-12-05T09:14:57;9.59;;;5.94;;
43680;SDS011;29281;50.356;30.894;2022-12-05T09:17:12;8.75;;;6.23;;
43680;SDS011;29281;50.356;30.894;2022-12-05T09:18:15;11.25;;;6.97;;
43680;SDS011;29281;50.356;30.894;2022-12-05T09:19:19;11.48;;;6.34;;
43680;SDS011;29281;50.356;30.894;2022-12-05T09:20:25;9.64;;;6.09;;
43680;SDS011;29281;50.356;30.894;2022-12-05T09:21:29;10.75;;;6.89;;
43680;SDS011;29281;50.356;30.894;2022-12-05T09:22:33;9.62;;;5.93;;
43680;SDS011;29281;50.356;30.894;2022-12-05T09:23:40;12.75;;;6.66;;
43680;SDS011;29281;50.356;30.894;2022-12-05T09:24:43;8.76;;;6.04;;
43680;SDS011;29281;50.356;30.894;2022-12-05T09:25:53;8.88;;;6.38;;
43680;SDS011;29281;50.356;30.894;2022-12-05T09:26:58;11.41;;;6.42;;
43680;SDS011;29281;50.356;30.894;2022-12-05T09:28:03;11.45;;;6.47;;
43680;SDS011;29281;50.356;30.894;2022-12-05T09:29:07;10.56;;;6.69;;
43680;SDS011;29281;50.356;30.894;2022-12-05T09:30:14;11.28;;;6.26;;
43680;SDS011;29281;50.356;30.894;2022-12-05T09:31:18;9.98;;;6.01;;
43680;SDS011;29281;50.356;30.894;2022-12-05T09:32:23;12.58;;;6.51;;
43680;SDS011;29281;50.356;30.894;2022-12-05T09:33:27;9.92;;;6.22;;
43680;SDS011;29281;50.356;30.894;2022-12-05T09:34:31;10.78;;;6.51;;
43680;SDS011;29281;50.356;30.894;2022-12-05T09:35:37;11.11;;;6.68;;
43680;SDS011;29281;50.356;30.894;2022-12-05T09:36:42;13.53;;;6.99;;
43680;SDS011;29281;50.356;30.894;2022-12-05T09:37:56;10.27;;;6.36;;
43680;SDS011;29281;50.356;30.894;2022-12-05T09:39:00;9.35;;;6.16;;
43680;SDS011;29281;50.356;30.894;2022-12-05T09:40:09;11.75;;;6.47;;
43680;SDS011;29281;50.356;30.894;2022-12-05T09:41:22;8.84;;;6.09;;
43680;SDS011;29281;50.356;30.894;2022-12-05T09:42:57;8.99;;;6.15;;
43680;SDS011;29281;50.356;30.894;2022-12-05T09:44:03;10.38;;;6.99;;
43680;SDS011;29281;50.356;30.894;2022-12-05T09:46:41;12.74;;;7.16;;
43680;SDS011;29281;50.356;30.894;2022-12-05T09:47:56;10.07;;;6.96;;
43680;SDS011;29281;50.356;30.894;2022-12-05T09:49:02;11.41;;;6.84;;
43680;SDS011;29281;50.356;30.894;2022-12-05T09:50:17;12.43;;;6.79;;
43680;SDS011;29281;50.356;30.894;2022-12-05T09:51:24;11.19;;;6.99;;
43680;SDS011;29281;50.356;30.894;2022-12-05T09:52:30;11.82;;;7.49;;
43680;SDS011;29281;50.356;30.894;2022-12-05T09:53:38;11.93;;;6.18;;
43680;SDS011;29281;50.356;30.894;2022-12-05T09:54:43;11.97;;;6.44;;
43680;SDS011;29281;50.356;30.894;2022-12-05T09:57:07;11.71;;;7.00;;
43680;SDS011;29281;50.356;30.894;2022-12-05T09:58:19;10.59;;;6.73;;
43680;SDS011;29281;50.356;30.894;2022-12-05T09:59:24;10.13;;;6.99;;
43680;SDS011;29281;50.356;30.894;2022-12-05T10:00:28;12.81;;;7.17;;
43680;SDS011;29281;50.356;30.894;2022-12-05T10:08:48;14.02;;;6.93;;
43680;SDS011;29281;50.356;30.894;2022-12-05T10:11:33;10.33;;;6.26;;
43680;SDS011;29281;50.356;30.894;2022-12-05T10:15:11;11.14;;;6.71;;
43680;SDS011;29281;50.356;30.894;2022-12-05T10:16:30;11.82;;;6.68;;
43680;SDS011;29281;50.356;30.894;2022-12-05T10:17:37;10.66;;;6.54;;
43680;SDS011;29281;50.356;30.894;2022-12-05T10:18:45;10.95;;;7.39;;
43680;SDS011;29281;50.356;30.894;2022-12-05T10:19:56;12.34;;;7.46;;
43680;SDS011;29281;50.356;30.894;2022-12-05T10:21:24;9.25;;;6.62;;
43680;SDS011;29281;50.356;30.894;2022-12-05T10:24:03;11.27;;;7.42;;
43680;SDS011;29281;50.356;30.894;2022-12-05T10:25:09;11.37;;;6.99;;
43680;SDS011;29281;50.356;30.894;2022-12-05T10:26:16;11.08;;;7.38;;
43680;SDS011;29281;50.356;30.894;2022-12-05T10:27:31;13.36;;;8.23;;
43680;SDS011;29281;50.356;30.894;2022-12-05T10:28:41;11.28;;;7.36;;
43680;SDS011;29281;50.356;30.894;2022-12-05T10:29:58;14.21;;;7.51;;
43680;SDS011;29281;50.356;30.894;2022-12-05T10:31:19;11.49;;;7.21;;
43680;SDS011;29281;50.356;30.894;2022-12-05T10:32:34;12.67;;;7.35;;
43680;SDS011;29281;50.356;30.894;2022-12-05T10:33:48;11.98;;;6.99;;
43680;SDS011;29281;50.356;30.894;2022-12-05T10:36:19;13.28;;;7.31;;
43680;SDS011;29281;50.356;30.894;2022-12-05T10:37:22;14.11;;;7.71;;
43680;SDS011;29281;50.356;30.894;2022-12-05T10:38:28;12.40;;;7.51;;
43680;SDS011;29281;50.356;30.894;2022-12-05T10:39:33;11.38;;;7.42;;
43680;SDS011;29281;50.356;30.894;2022-12-05T10:40:39;12.01;;;7.57;;
43680;SDS011;29281;50.356;30.894;2022-12-05T10:41:48;12.87;;;7.81;;
43680;SDS011;29281;50.356;30.894;2022-12-05T10:42:51;9.68;;;7.37;;
43680;SDS011;29281;50.356;30.894;2022-12-05T10:43:55;12.00;;;7.63;;
43680;SDS011;29281;50.356;30.894;2022-12-05T10:45:03;13.41;;;7.72;;
43680;SDS011;29281;50.356;30.894;2022-12-05T10:46:09;14.02;;;7.78;;
43680;SDS011;29281;50.356;30.894;2022-12-05T10:47:17;12.58;;;7.88;;
43680;SDS011;29281;50.356;30.894;2022-12-05T10:48:21;11.36;;;7.29;;
43680;SDS011;29281;50.356;30.894;2022-12-05T10:49:25;12.17;;;7.54;;
43680;SDS011;29281;50.356;30.894;2022-12-05T10:50:31;10.32;;;7.24;;
43680;SDS011;29281;50.356;30.894;2022-12-05T10:51:37;11.98;;;7.38;;
43680;SDS011;29281;50.356;30.894;2022-12-05T10:52:41;11.05;;;7.53;;
43680;SDS011;29281;50.356;30.894;2022-12-05T10:53:46;12.88;;;7.81;;
43680;SDS011;29281;50.356;30.894;2022-12-05T10:54:56;12.42;;;7.26;;
43680;SDS011;29281;50.356;30.894;2022-12-05T10:57:32;12.40;;;7.32;;
43680;SDS011;29281;50.356;30.894;2022-12-05T10:58:36;10.91;;;7.64;;
43680;SDS011;29281;50.356;30.894;2022-12-05T10:59:44;12.53;;;7.69;;
43680;SDS011;29281;50.356;30.894;2022-12-05T11:00:57;13.32;;;7.14;;
43680;SDS011;29281;50.356;30.894;2022-12-05T11:02:11;13.20;;;7.72;;
43680;SDS011;29281;50.356;30.894;2022-12-05T11:04:41;11.79;;;6.28;;
43680;SDS011;29281;50.356;30.894;2022-12-05T11:05:49;10.19;;;6.77;;
43680;SDS011;29281;50.356;30.894;2022-12-05T11:07:03;10.87;;;7.51;;
43680;SDS011;29281;50.356;30.894;2022-12-05T11:08:16;10.41;;;7.07;;
43680;SDS011;29281;50.356;30.894;2022-12-05T11:09:17;12.39;;;6.94;;
43680;SDS011;29281;50.356;30.894;2022-12-05T11:10:29;13.78;;;7.34;;
43680;SDS011;29281;50.356;30.894;2022-12-05T11:11:33;9.48;;;6.78;;
43680;SDS011;29281;50.356;30.894;2022-12-05T11:12:38;11.03;;;7.08;;
43680;SDS011;29281;50.356;30.894;2022-12-05T11:13:52;11.67;;;7.48;;
43680;SDS011;29281;50.356;30.894;2022-12-05T11:15:18;10.49;;;7.23;;
43680;SDS011;29281;50.356;30.894;2022-12-05T11:16:24;12.43;;;7.28;;
43680;SDS011;29281;50.356;30.894;2022-12-05T11:17:34;10.16;;;7.43;;
43680;SDS011;29281;50.356;30.894;2022-12-05T11:18:41;11.66;;;7.11;;
43680;SDS011;29281;50.356;30.894;2022-12-05T11:19:46;12.92;;;7.70;;
43680;SDS011;29281;50.356;30.894;2022-12-05T11:20:54;12.29;;;7.00;;
43680;SDS011;29281;50.356;30.894;2022-12-05T11:21:58;10.72;;;7.79;;
43680;SDS011;29281;50.356;30.894;2022-12-05T11:23:04;11.16;;;7.31;;
43680;SDS011;29281;50.356;30.894;2022-12-05T11:24:24;10.19;;;6.94;;
43680;SDS011;29281;50.356;30.894;2022-12-05T11:25:32;11.29;;;6.76;;
43680;SDS011;29281;50.356;30.894;2022-12-05T11:26:36;10.47;;;7.51;;
43680;SDS011;29281;50.356;30.894;2022-12-05T11:27:41;11.09;;;7.65;;
43680;SDS011;29281;50.356;30.894;2022-12-05T11:28:44;10.65;;;7.51;;
43680;SDS011;29281;50.356;30.894;2022-12-05T11:30:04;10.88;;;6.82;;
43680;SDS011;29281;50.356;30.894;2022-12-05T11:32:23;11.38;;;6.48;;
43680;SDS011;29281;50.356;30.894;2022-12-05T11:33:31;10.88;;;6.78;;
43680;SDS011;29281;50.356;30.894;2022-12-05T11:34:41;10.41;;;6.49;;
43680;SDS011;29281;50.356;30.894;2022-12-05T11:36:03;8.81;;;6.37;;
43680;SDS011;29281;50.356;30.894;2022-12-05T11:37:25;9.05;;;6.55;;
43680;SDS011;29281;50.356;30.894;2022-12-05T11:38:31;9.49;;;6.09;;
43680;SDS011;29281;50.356;30.894;2022-12-05T11:39:36;9.22;;;6.24;;
43680;SDS011;29281;50.356;30.894;2022-12-05T11:48:56;9.99;;;5.60;;
43680;SDS011;29281;50.356;30.894;2022-12-05T11:51:41;8.06;;;5.74;;
43680;SDS011;29281;50.356;30.894;2022-12-05T11:55:45;9.78;;;5.83;;
43680;SDS011;29281;50.356;30.894;2022-12-05T11:56:53;7.76;;;5.24;;
43680;SDS011;29281;50.356;30.894;2022-12-05T11:58:16;7.41;;;5.43;;
43680;SDS011;29281;50.356;30.894;2022-12-05T11:59:42;8.08;;;5.21;;
43680;SDS011;29281;50.356;30.894;2022-12-05T12:01:10;8.50;;;4.92;;
43680;SDS011;29281;50.356;30.894;2022-12-05T12:02:34;9.96;;;5.51;;
43680;SDS011;29281;50.356;30.894;2022-12-05T12:04:03;7.36;;;5.10;;
43680;SDS011;29281;50.356;30.894;2022-12-05T12:07:00;9.09;;;5.51;;
43680;SDS011;29281;50.356;30.894;2022-12-05T12:08:22;7.62;;;5.39;;
43680;SDS011;29281;50.356;30.894;2022-12-05T12:09:32;7.96;;;4.99;;
43680;SDS011;29281;50.356;30.894;2022-12-05T12:14:58;8.90;;;5.12;;
43680;SDS011;29281;50.356;30.894;2022-12-05T12:17:28;9.44;;;5.32;;
43680;SDS011;29281;50.356;30.894;2022-12-05T12:21:58;8.36;;;4.51;;
43680;SDS011;29281;50.356;30.894;2022-12-05T12:23:17;6.91;;;5.19;;
43680;SDS011;29281;50.356;30.894;2022-12-05T12:27:20;8.54;;;5.34;;
43680;SDS011;29281;50.356;30.894;2022-12-05T12:29:45;7.50;;;4.97;;
43680;SDS011;29281;50.356;30.894;2022-12-05T12:32:17;7.53;;;4.71;;
43680;SDS011;29281;50.356;30.894;2022-12-05T12:33:36;9.98;;;4.64;;
43680;SDS011;29281;50.356;30.894;2022-12-05T12:37:40;8.57;;;4.98;;
43680;SDS011;29281;50.356;30.894;2022-12-05T12:40:34;9.63;;;5.60;;
43680;SDS011;29281;50.356;30.894;2022-12-05T12:42:02;8.97;;;5.24;;
43680;SDS011;29281;50.356;30.894;2022-12-05T12:45:01;7.62;;;4.81;;
43680;SDS011;29281;50.356;30.894;2022-12-05T12:47:20;7.63;;;5.36;;
43680;SDS011;29281;50.356;30.894;2022-12-05T12:48:27;7.56;;;5.22;;
43680;SDS011;29281;50.356;30.894;2022-12-05T12:50:39;7.73;;;5.24;;
43680;SDS011;29281;50.356;30.894;2022-12-05T12:51:52;8.32;;;4.88;;
43680;SDS011;29281;50.356;30.894;2022-12-05T12:56:09;9.29;;;5.51;;
43680;SDS011;29281;50.356;30.894;2022-12-05T12:57:21;9.26;;;5.19;;
43680;SDS011;29281;50.356;30.894;2022-12-05T13:03:03;7.70;;;4.30;;
43680;SDS011;29281;50.356;30.894;2022-12-05T13:04:29;9.24;;;4.75;;
43680;SDS011;29281;50.356;30.894;2022-12-05T13:07:04;8.12;;;4.99;;
43680;SDS011;29281;50.356;30.894;2022-12-05T13:08:04;7.15;;;4.96;;
43680;SDS011;29281;50.356;30.894;2022-12-05T13:09:23;7.71;;;5.02;;
43680;SDS011;29281;50.356;30.894;2022-12-05T13:10:32;10.29;;;5.23;;
